Monday, March 2, 2015, 11:29 AM EST

KW99, Petersburg, Grant County Airport

Location: Petersburg, WV, United States Lat: 38.983
Local Time: 11:29 AM EST (16:29 GMT) Lon: -79.133
Time Zone: US/Eastern Elev: 961 ft

Show me the last for .
Show Decoded

2015-03-02 10:55 METAR KW99 021555Z AUTO 29011G17KT 250V310 10SM CLR 04/M09 A3031 RMK AO2
                 T00431088 =
2015-03-02 10:35 METAR KW99 021535Z AUTO 27009KT 250V340 10SM CLR 04/M09 A3031 RMK AO2 T00411091
                 =
2015-03-02 10:15 METAR KW99 021515Z AUTO 33009G15KT 10SM CLR 04/M07 A3032 RMK AO2 T00391071 =
2015-03-02 09:55 METAR KW99 021455Z AUTO 30014G19KT 10SM SCT044 SCT050 04/M07 A3032 RMK AO2
                 T00351068 =
2015-03-02 09:35 METAR KW99 021435Z AUTO 35005KT 10SM SCT048 SCT050 04/M07 A3032 RMK AO2
                 T00391071 =
2015-03-02 09:15 METAR KW99 021415Z AUTO 26008G14KT 10SM SCT048 SCT060 04/M06 A3030 RMK AO2
                 T00391065 =
2015-03-02 08:55 METAR KW99 021355Z AUTO 34006G21KT 10SM SCT048 SCT060 04/M06 A3029 RMK AO2
                 T00381062 =
2015-03-02 08:35 METAR KW99 021335Z AUTO 28017G22KT 250V320 10SM SCT043 BKN050 BKN060 04/M07
                 A3027 RMK AO2 T00361069 =
2015-03-02 07:55 METAR KW99 021255Z AUTO 26017G26KT 10SM BKN034 BKN043 OVC050 04/M05 A3024 RMK
                 AO2 T00351048 =
2015-03-02 07:35 METAR KW99 021235Z AUTO 32005G18KT 10SM OVC031 03/M04 A3024 RMK AO2 T00341037 =
2015-03-02 07:15 METAR KW99 021215Z AUTO 24010G14KT 10SM OVC031 04/M03 A3022 RMK AO2 T00351033 =
2015-03-02 06:55 METAR KW99 021155Z AUTO 26015G24KT 10SM BKN032 BKN038 OVC046 04/M03 A3020 RMK
                 AO2 70004 T00381031 10098 20034 =
2015-03-02 06:35 METAR KW99 021135Z AUTO 26016G23KT 10SM SCT038 BKN043 OVC050 04/M03 A3018 RMK
                 AO2 T00441031 =
2015-03-02 06:15 METAR KW99 021115Z AUTO 25017G25KT 10SM SCT038 BKN044 OVC050 05/M03 A3017 RMK
                 AO2 T00461028 =
2015-03-02 05:55 METAR KW99 021055Z AUTO 27014G24KT 10SM -DZ SCT029 SCT037 OVC045 05/M02 A3015
                 RMK AO2 T00471019 =
2015-03-02 05:35 METAR KW99 021035Z AUTO 25017G27KT 7SM DZ SCT028 BKN037 OVC046 05/M01 A3013 RMK
                 AO2 T00501014 =
2015-03-02 05:15 METAR KW99 021015Z AUTO 23019G26KT 10SM DZ SCT030 OVC043 06/M02 A3011 RMK AO2
                 T00591016 =
2015-03-02 04:55 METAR KW99 020955Z AUTO 26011G16KT 10SM SCT041 BKN047 BKN070 07/M01 A3010 RMK
                 AO2 T00651013 =
2015-03-02 04:35 METAR KW99 020935Z AUTO 28005G22KT 10SM -DZ SCT034 OVC047 07/M01 A3009 RMK AO2
                 T00711011 =
2015-03-02 04:15 METAR KW99 020915Z AUTO 25012G16KT 10SM -DZ SCT029 BKN036 OVC046 07/00 A3008 RMK
                 AO2 T00721005 =
2015-03-02 03:35 METAR KW99 020835Z AUTO 24011G18KT 10SM -DZ SCT030 OVC040 08/01 A3006 RMK AO2
                 T00820005 =
2015-03-02 03:15 METAR KW99 020815Z AUTO 24011G18KT 10SM DZ OVC040 09/01 A3006 RMK AO2 T00860007
                 =
2015-03-02 02:55 METAR KW99 020755Z AUTO 27010G20KT 10SM BKN040 BKN045 09/01 A3006 RMK AO2
                 T00900007 =
2015-03-02 02:35 METAR KW99 020735Z AUTO 24008KT 220V290 10SM -DZ BKN038 OVC045 09/01 A3007 RMK
                 AO2 T00880012 =
2015-03-02 01:55 METAR KW99 020655Z AUTO 25013G20KT 230V290 10SM DZ SCT033 OVC039 09/02 A3009 RMK
                 AO2 T00870020 =
2015-03-02 01:35 METAR KW99 020635Z AUTO 27007KT 10SM BKN035 BKN041 09/03 A3009 RMK AO2 T00930033
                 =
2015-03-02 01:15 METAR KW99 020615Z AUTO 02005KT 10SM BKN039 BKN046 BKN100 03/01 A3009 RMK AO2
                 T00340010 =
2015-03-02 00:55 METAR KW99 020555Z AUTO 09004KT 10SM BKN037 OVC044 04/03 A3009 RMK AO2 T00430032
                 10067 21004 400671058 =
2015-03-02 00:35 METAR KW99 020535Z AUTO 11008KT 10SM BKN035 OVC042 03/02 A3010 RMK AO2 T00340022
                 =
2015-03-02 00:15 METAR KW99 020515Z AUTO 16004KT 7SM BKN035 OVC043 03/03 A3011 RMK AO2 T00270026
                 =
2015-03-01 23:55 METAR KW99 020455Z AUTO 11004KT 7SM OVC035 02/02 A3012 RMK AO2 T00200020 =
2015-03-01 23:35 METAR KW99 020435Z AUTO 09006KT 7SM OVC035 02/02 A3013 RMK AO2 T00210021 =
2015-03-01 23:15 METAR KW99 020415Z AUTO 10005KT 5SM BR OVC033 01/01 A3014 RMK AO2 T00130013 =
2015-03-01 22:55 METAR KW99 020355Z AUTO 10004KT 4SM BR OVC035 01/01 A3015 RMK AO2 T00120012 =
2015-03-01 22:35 METAR KW99 020335Z AUTO 12003KT 5SM BR BKN037 BKN043 OVC050 01/01 A3014 RMK AO2
                 T00100010 =
2015-03-01 22:15 METAR KW99 020315Z AUTO 15006KT 4SM UP BKN037 BKN044 BKN085 01/01 A3016 RMK AO2
                 T00080008 =
2015-03-01 21:55 METAR KW99 020255Z AUTO 13003KT 3SM UP SCT004 BKN038 OVC045 01/01 A3018 RMK AO2
                 T00100010 =
2015-03-01 21:35 METAR KW99 020235Z AUTO 00000KT 4SM UP OVC038 01/01 A3017 RMK AO2 T00060006 =
2015-03-01 21:15 METAR KW99 020215Z AUTO 00000KT 4SM UP BKN038 OVC044 00/00 A3017 RMK AO2
                 T00020002 =
2015-03-01 20:55 METAR KW99 020155Z AUTO 00000KT 3SM BR SCT005 OVC038 00/00 A3017 RMK AO2
                 T10031003 =
2015-03-01 20:35 METAR KW99 020135Z AUTO 13003KT 2 1/2SM BR SCT005 OVC038 00/00 A3018 RMK AO2
                 T10041004 =
2015-03-01 20:15 METAR KW99 020115Z AUTO 00000KT 3SM BR SCT004 OVC038 00/00 A3019 RMK AO2
                 T10011001 =
2015-03-01 19:55 METAR KW99 020055Z AUTO 00000KT 3SM BR SCT005 OVC038 00/00 A3020 RMK AO2
                 T00000000 =
2015-03-01 19:30 METAR KW99 020030Z AUTO 00000KT 3SM BR OVC036 01/01 A3020 RMK AO2 T00050005 =
2015-03-01 19:15 METAR KW99 020015Z AUTO 00000KT 3SM BR BKN038 OVC044 01/01 A3021 RMK AO2
                 T00100010 =
2015-03-01 18:55 METAR KW99 012355Z AUTO 00000KT 5SM BR OVC038 01/01 A3021 RMK AO2 P0001 60003
                 T00130012 10021 20006 =
2015-03-01 18:35 METAR KW99 012335Z AUTO 12004KT 5SM UP OVC036 02/01 A3022 RMK AO2 P0001
                 T00160013 =
2015-03-01 18:15 METAR KW99 012315Z AUTO 00000KT 5SM BR BKN038 OVC048 02/01 A3024 RMK AO2 P0001
                 T00170010 =
2015-03-01 17:35 METAR KW99 012235Z AUTO 00000KT 4SM UP SCT036 BKN045 OVC070 02/00 A3024 RMK AO2
                 T00190001 =
2015-03-01 17:15 METAR KW99 012215Z AUTO 00000KT 5SM RA SCT041 BKN048 OVC070 02/00 A3025 RMK AO2
                 T00191003 =
2015-03-01 16:55 METAR KW99 012155Z AUTO 00000KT 5SM -RA OVC046 02/M01 A3025 RMK AO2 T00201009 =
2015-03-01 16:35 METAR KW99 012135Z AUTO 00000KT 7SM -RA BKN046 OVC060 02/M02 A3026 RMK AO2
                 T00161017 =
2015-03-01 16:15 METAR KW99 012115Z AUTO 00000KT 7SM -RA BKN046 OVC060 01/M02 A3027 RMK AO2
                 T00141020 =
2015-03-01 15:55 METAR KW99 012055Z AUTO 00000KT 7SM -DZ SCT030 BKN044 OVC050 01/M02 A3028 RMK
                 AO2 60002 T00121025 =
2015-03-01 15:35 METAR KW99 012035Z AUTO 00000KT 7SM -RA SCT025 SCT034 BKN049 01/M02 A3027 RMK
                 AO2 T00141024 =
2015-03-01 15:15 METAR KW99 012015Z AUTO 00000KT 5SM -RA BKN038 BKN045 OVC060 01/M03 A3028 RMK
                 AO2 T00121028 =
2015-03-01 14:55 METAR KW99 011955Z AUTO 00000KT 4SM -RA BKN040 OVC055 02/M02 A3030 RMK AO2 P0002
                 T00161025 =
2015-03-01 14:35 METAR KW99 011935Z AUTO 00000KT 2 1/2SM -RA SCT025 BKN040 OVC055 02/M03 A3031
                 RMK AO2 P0001 T00171028 =
2015-03-01 14:15 METAR KW99 011915Z AUTO 00000KT 10SM -RA SCT031 BKN040 OVC065 02/M03 A3032 RMK
                 AO2 T00211031 =
2015-03-01 13:55 METAR KW99 011855Z AUTO 00000KT 7SM DZ SCT023 OVC040 02/M03 A3033 RMK AO2
                 T00161035 =
2015-03-01 13:35 METAR KW99 011835Z AUTO 00000KT 10SM SCT024 SCT031 OVC042 01/M04 A3034 RMK AO2
                 T00131045 =
2015-03-01 13:15 METAR KW99 011815Z AUTO 00000KT 7SM -RA SCT027 BKN033 OVC042 01/M06 A3036 RMK
                 AO2 T00061057 =
2015-03-01 12:55 METAR KW99 011755Z AUTO 00000KT 7SM -RA SCT027 SCT034 OVC044 01/M06 A3038 RMK
                 AO2 T00061061 10006 21035 =
2015-03-01 12:35 METAR KW99 011735Z AUTO 00000KT 10SM -RA SCT039 OVC046 00/M07 A3041 RMK AO2
                 T00021071 =
2015-03-01 12:15 METAR KW99 011715Z AUTO 00000KT 10SM -RA OVC039 00/M08 A3041 RMK AO2 T00001078 =
2015-03-01 11:55 METAR KW99 011655Z AUTO 00000KT 10SM -RA SCT034 OVC042 00/M09 A3044 RMK AO2
                 T10031089 =
2015-03-01 11:35 METAR KW99 011635Z AUTO 00000KT 7SM UP SCT037 OVC044 M01/M10 A3045 RMK AO2
                 T10081097 =

Support USWX by starting your Amazon purchase here.